Windham, NY

10:26 AM EDT on August 31, 2015 (GMT -0400)
Townhouse at Base of Windham Mountain Resort | | Change Station
CLOSE
Current Station
Personal Weather Station
Location: Windham, NY
Elevation: 1640 ft
Nearby Weather Stations

Elev 1640 ft 42.30 °N, 74.26 °W | Updated 10 minutes ago

Clear
Clear
75.9 °F
Feels Like 77 °F
N
2.2
Wind Variable Wind from East

Today
High -- | Low -- °F
--% Chance of Precip.
Yesterday
High -- | Low -- °F
Precip. -- in
6:21 AM 7:33 PM
Waning Gibbous, 95% visible
Pressure 30.01 in
Visibility 8.0 miles
Clouds Few 1000 ft
Few 15000 ft
Few 26000 ft
Heat Index 77 °F
Dew Point 66 °F
Humidity 72%
Rainfall 0.00 in
Snow Depth Not available.
UV 4 out of 12
Pollen 9.70 out of 12
Air Quality Not available.
Flu Activity Not available.
METAR KALB 311351Z 15003KT 8SM VCFG FEW010 FEW150 FEW260 24/19 A3001 RMK AO2 SLP162 VCFG SW T02390189
Pressure 30.01 in
Visibility 8.0 miles
Clouds Few 1000 ft
Few 15000 ft
Few 26000 ft
Heat Index 77 °F
Dew Point 66 °F
Humidity 72%
Rainfall 0.00 in
Snow Depth Not available.
UV 4 out of 12
Pollen 9.70 out of 12
Air Quality Not available.
Flu Activity Not available.
METAR KALB 311351Z 15003KT 8SM VCFG FEW010 FEW150 FEW260 24/19 A3001 RMK AO2 SLP162 VCFG SW T02390189

10-Day Weather Forecast

×

Almanac

Astronomy

Aug. 31, 2015 Rise Set
Actual Time
Civil Twilight
Nautical Twilight
Astronomical Twilight
Moon
Length of Visible Light
Length of Day
Tomorrow will be .
, % of the Moon is Illuminated

Today's Extremes

State Highs State Lows

Community

WunderPhotos

Upload Photos

1,851,248 photos uploaded!

WunderBlogs® & News

Nearby

Air Quality

  Air Quality AQ Index Pollutant
Not available.

Snow Depth

Station Depth Elevation

Earthquake Activity

City Distance Mag. Time & Date
Minimum magnitude displayed is 2.5.

Coastal Water Temperatures

Place Temperature

Stations

Nearby Weather Stations

Station Location Temp. Windchill Dew Point Humidity Wind Precip. Elev Updated Type